Time;durP1;ratioP1;P1;durP2;ratioP2;P2;SDS_P1;SDS_P2;PMS_P1;PMS_P2;Temp;Humidity;BMP_temperature;BMP_pressure;BME280_temperature;BME280_humidity;BME280_pressure;Samples;Min_cycle;Max_cycle;Signal;HPM_P1;HPM_P2
2023/01/19 00:00:19;;;;;;;14.27;6.23;;;;;;;-4.94;100.00;99415.75;5022690;28;20560;-70
2023/01/19 00:02:46;;;;;;;18.17;7.33;;;;;;;-5.03;100.00;99419.66;5020419;28;20555;-70
2023/01/19 00:05:12;;;;;;;20.73;5.73;;;;;;;-5.13;100.00;99418.47;5020987;28;20037;-70
2023/01/19 00:07:37;;;;;;;15.90;6.30;;;;;;;-5.24;100.00;99420.63;5023016;28;20040;-69
2023/01/19 00:10:03;;;;;;;16.10;5.93;;;;;;;-5.31;100.00;99424.63;5026517;28;20021;-70
2023/01/19 00:12:29;;;;;;;18.60;6.00;;;;;;;-5.35;100.00;99422.75;5021776;28;20508;-70
2023/01/19 00:14:54;;;;;;;11.63;4.30;;;;;;;-5.41;100.00;99427.66;5025772;28;20035;-70
2023/01/19 00:17:19;;;;;;;35.07;5.57;;;;;;;-5.40;100.00;99426.81;5026890;28;20033;-70
2023/01/19 00:19:44;;;;;;;16.67;6.43;;;;;;;-5.37;100.00;99426.97;5028440;28;20043;-70
2023/01/19 00:22:10;;;;;;;19.50;6.60;;;;;;;-5.25;100.00;99438.56;5024993;28;20076;-70
2023/01/19 00:24:35;;;;;;;18.10;6.17;;;;;;;-5.20;100.00;99443.06;5023349;28;20041;-70
2023/01/19 00:27:02;;;;;;;49.50;8.33;;;;;;;-5.16;100.00;99441.47;5025137;28;20519;-70
2023/01/19 00:29:32;;;;;;;14.73;5.97;;;;;;;-5.15;100.00;99436.38;5025483;28;20030;-70
2023/01/19 00:32:02;;;;;;;15.43;6.47;;;;;;;-5.14;100.00;99442.41;5024221;28;20053;-70
2023/01/19 00:34:35;;;;;;;18.93;7.23;;;;;;;-5.15;100.00;99450.97;5023278;28;20065;-70
2023/01/19 00:37:02;;;;;;;17.00;7.20;;;;;;;-5.14;100.00;99450.13;5028177;28;20037;-70
2023/01/19 00:39:27;;;;;;;14.50;6.43;;;;;;;-5.14;100.00;99450.13;5023969;28;20388;-70
2023/01/19 00:44:37;;;;;;;13.60;6.37;;;;;;;-5.17;100.00;99455.16;5023656;28;20137;-70
2023/01/19 00:47:04;;;;;;;14.07;5.77;;;;;;;-5.18;100.00;99450.84;5028321;28;20436;-70
2023/01/19 00:49:30;;;;;;;14.60;6.47;;;;;;;-5.19;100.00;99449.94;5028752;28;20033;-70
2023/01/19 00:51:55;;;;;;;11.77;5.43;;;;;;;-5.22;100.00;99459.25;5022712;28;20037;-70
2023/01/19 00:54:20;;;;;;;17.03;5.93;;;;;;;-5.29;100.00;99459.00;5025992;28;20057;-69
2023/01/19 00:56:46;;;;;;;14.77;7.33;;;;;;;-5.25;100.00;99464.28;5028644;28;20061;-70
2023/01/19 00:59:12;;;;;;;21.27;8.03;;;;;;;-5.26;100.00;99467.66;5039323;28;20033;-70
2023/01/19 01:01:37;;;;;;;16.17;7.53;;;;;;;-5.28;100.00;99473.63;5023468;28;20404;-70
2023/01/19 01:04:02;;;;;;;15.40;6.20;;;;;;;-5.32;100.00;99471.75;5024386;28;20118;-70
2023/01/19 01:06:27;;;;;;;15.30;6.60;;;;;;;-5.36;100.00;99487.88;5027161;28;20064;-70
2023/01/19 01:08:53;;;;;;;17.23;7.00;;;;;;;-5.32;100.00;99484.63;5026147;28;20037;-70
2023/01/19 01:11:18;;;;;;;15.73;7.37;;;;;;;-5.38;100.00;99474.06;5024696;28;20488;-70
2023/01/19 01:13:43;;;;;;;18.27;7.23;;;;;;;-5.39;100.00;99479.16;5025708;28;20041;-70
2023/01/19 01:16:09;;;;;;;16.23;6.83;;;;;;;-5.44;100.00;99484.09;5023184;28;20033;-69
2023/01/19 01:18:34;;;;;;;12.17;6.40;;;;;;;-5.45;100.00;99481.47;5023032;28;20068;-70
2023/01/19 01:21:04;;;;;;;13.67;6.57;;;;;;;-5.41;100.00;99484.22;5022363;28;20030;-70
2023/01/19 01:23:31;;;;;;;18.67;6.47;;;;;;;-5.45;100.00;99489.19;5025052;28;20068;-70
2023/01/19 01:25:56;;;;;;;17.03;6.73;;;;;;;-5.50;100.00;99496.72;5023659;28;20086;-70
2023/01/19 01:28:22;;;;;;;13.73;6.30;;;;;;;-5.51;100.00;99497.53;5023673;28;20120;-70
2023/01/19 01:30:51;;;;;;;14.93;6.47;;;;;;;-5.55;100.00;99495.66;5024400;28;20037;-70
2023/01/19 01:33:16;;;;;;;17.80;7.40;;;;;;;-5.55;100.00;99496.53;5021872;28;20033;-70
2023/01/19 01:35:42;;;;;;;14.37;5.60;;;;;;;-5.57;100.00;99499.84;5024205;28;20484;-70
2023/01/19 01:38:08;;;;;;;17.27;5.63;;;;;;;-5.62;100.00;99501.34;5027930;28;20413;-70
2023/01/19 01:40:33;;;;;;;23.70;6.73;;;;;;;-5.64;100.00;99490.13;5021974;28;20038;-70
2023/01/19 01:42:59;;;;;;;17.33;6.37;;;;;;;-5.66;100.00;99491.75;5027555;28;20041;-70
2023/01/19 01:45:36;;;;;;;18.67;5.93;;;;;;;-5.67;100.00;99496.00;5025849;28;20191;-70
2023/01/19 01:48:09;;;;;;;13.17;5.23;;;;;;;-5.69;100.00;99496.75;5021664;28;20046;-71
2023/01/19 01:51:22;;;;;;;13.60;5.57;;;;;;;-5.76;100.00;99499.09;5028298;28;20175;-70
2023/01/19 01:53:28;;;;;;;13.23;5.80;;;;;;;-5.82;100.00;99500.50;5023618;28;20036;-70
2023/01/19 01:55:54;;;;;;;13.07;5.73;;;;;;;-5.83;100.00;99493.63;5023918;28;20034;-70
2023/01/19 01:58:20;;;;;;;14.63;6.00;;;;;;;-5.85;100.00;99493.53;5021008;28;20033;-70
2023/01/19 02:03:31;;;;;;;14.93;5.53;;;;;;;-5.78;100.00;99498.13;5032852;28;20049;-70
2023/01/19 02:06:00;;;;;;;16.13;5.27;;;;;;;-5.82;100.00;99495.34;5021091;28;20026;-70
2023/01/19 02:14:30;;;;;;;16.33;6.63;;;;;;;-5.75;100.00;99500.81;5022574;28;20402;-70
2023/01/19 02:16:55;;;;;;;12.77;5.77;;;;;;;-5.76;100.00;99501.66;5021472;28;20069;-70
2023/01/19 02:19:29;;;;;;;15.57;5.83;;;;;;;-5.78;100.00;99500.69;5023578;28;20088;-69
2023/01/19 02:22:08;;;;;;;16.63;6.27;;;;;;;-5.75;100.00;99503.41;5021292;28;20046;-70
2023/01/19 02:24:34;;;;;;;14.17;5.30;;;;;;;-5.73;100.00;99504.34;5020896;28;20492;-70
2023/01/19 02:27:00;;;;;;;16.40;5.73;;;;;;;-5.73;100.00;99506.91;5023326;28;20035;-70
2023/01/19 02:29:27;;;;;;;13.17;6.00;;;;;;;-5.73;100.00;99506.91;5040865;23;20056;-74
2023/01/19 02:31:54;;;;;;;15.17;5.87;;;;;;;-5.74;100.00;99505.16;5020865;28;20073;-73
2023/01/19 02:34:20;;;;;;;13.60;5.73;;;;;;;-5.72;100.00;99508.66;5021572;28;20037;-73
2023/01/19 02:36:57;;;;;;;16.80;5.87;;;;;;;-5.71;100.00;99512.13;5024498;28;20033;-74
2023/01/19 02:39:35;;;;;;;13.20;5.20;;;;;;;-5.77;100.00;99517.88;5025491;28;20038;-74
2023/01/19 02:42:05;;;;;;;14.37;5.83;;;;;;;-5.78;100.00;99518.69;5023409;28;20037;-74
2023/01/19 02:44:33;;;;;;;14.00;5.17;;;;;;;-5.88;100.00;99521.69;5021009;28;20033;-73
2023/01/19 02:46:58;;;;;;;11.90;4.77;;;;;;;-5.93;100.00;99517.19;5022911;28;20106;-74
2023/01/19 02:49:27;;;;;;;12.20;5.60;;;;;;;-5.94;100.00;99521.47;5022060;28;20120;-74
2023/01/19 02:51:52;;;;;;;12.50;5.67;;;;;;;-5.97;100.00;99522.22;5020111;28;20099;-74
2023/01/19 02:54:49;;;;;;;9.97;4.70;;;;;;;-6.05;100.00;99522.66;5020089;28;20514;-73
2023/01/19 02:57:42;;;;;;;13.23;5.37;;;;;;;-6.10;100.00;99514.78;5022866;28;20037;-74
2023/01/19 03:00:10;;;;;;;14.50;5.90;;;;;;;-6.14;100.00;99523.16;5021305;28;20038;-73
2023/01/19 03:02:48;;;;;;;11.77;5.03;;;;;;;-6.17;100.00;99518.75;5023668;28;20029;-73
2023/01/19 03:05:21;;;;;;;10.63;5.07;;;;;;;-6.18;100.00;99526.41;5025278;28;20056;-74
2023/01/19 03:08:07;;;;;;;13.37;5.13;;;;;;;-6.26;100.00;99533.78;5028505;28;20045;-73
2023/01/19 03:10:32;;;;;;;12.07;4.43;;;;;;;-6.38;100.00;99535.78;5021698;28;20398;-73
2023/01/19 03:13:09;;;;;;;10.43;4.17;;;;;;;-6.52;100.00;99540.31;5024515;28;20127;-73
2023/01/19 03:15:40;;;;;;;11.93;4.27;;;;;;;-6.79;100.00;99536.44;5020218;28;20938;-74
2023/01/19 03:18:09;;;;;;;9.83;4.60;;;;;;;-6.97;100.00;99539.03;5020624;28;20038;-74
2023/01/19 03:20:35;;;;;;;9.50;4.03;;;;;;;-7.08;100.00;99535.94;5022762;28;20048;-73
2023/01/19 03:23:05;;;;;;;12.27;5.00;;;;;;;-7.22;100.00;99537.84;5021929;28;20558;-73
2023/01/19 03:25:36;;;;;;;13.47;5.00;;;;;;;-7.32;100.00;99536.53;5020790;28;20041;-73
2023/01/19 03:28:03;;;;;;;12.90;4.80;;;;;;;-7.32;100.00;99539.09;5022143;28;20048;-74
2023/01/19 03:30:34;;;;;;;11.30;4.20;;;;;;;-7.19;100.00;99542.25;5019377;28;20073;-73
2023/01/19 03:33:07;;;;;;;12.60;4.57;;;;;;;-7.07;100.00;99540.28;5023431;28;20048;-73
2023/01/19 03:35:35;;;;;;;13.83;5.13;;;;;;;-7.00;100.00;99536.31;5018278;28;20037;-74
2023/01/19 03:38:08;;;;;;;12.93;4.33;;;;;;;-6.93;100.00;99546.94;5028240;28;20061;-73
2023/01/19 03:40:35;;;;;;;12.57;4.37;;;;;;;-7.02;100.00;99549.09;5021000;28;20049;-73
2023/01/19 03:43:02;;;;;;;15.03;5.37;;;;;;;-7.11;100.00;99546.06;5024613;28;20033;-74
2023/01/19 03:45:30;;;;;;;10.87;4.80;;;;;;;-7.25;100.00;99547.97;5023307;28;20041;-73
2023/01/19 03:47:56;;;;;;;12.10;5.30;;;;;;;-7.39;100.00;99546.41;5023611;28;20033;-73
2023/01/19 03:50:27;;;;;;;11.67;5.87;;;;;;;-7.44;100.00;99537.59;5025773;28;20037;-73
2023/01/19 03:53:19;;;;;;;9.50;4.83;;;;;;;-7.46;100.00;99546.94;5025317;28;20045;-73
2023/01/19 03:55:47;;;;;;;12.33;4.83;;;;;;;-7.53;100.00;99546.59;5023554;28;20050;-73
2023/01/19 03:58:13;;;;;;;11.63;4.73;;;;;;;-7.58;100.00;99544.63;5026350;28;20163;-73
2023/01/19 04:00:38;;;;;;;8.93;4.40;;;;;;;-7.68;100.00;99544.94;5023060;28;20034;-73
2023/01/19 04:03:05;;;;;;;7.80;3.47;;;;;;;-7.74;100.00;99554.09;5028511;28;20045;-73
2023/01/19 04:05:31;;;;;;;11.13;4.57;;;;;;;-7.80;100.00;99558.91;5023863;28;20061;-73
2023/01/19 04:07:56;;;;;;;10.57;4.90;;;;;;;-7.81;100.00;99549.44;5030261;28;20451;-73
2023/01/19 04:10:22;;;;;;;13.80;4.93;;;;;;;-7.74;100.00;99551.53;5023241;28;20029;-73
2023/01/19 04:12:48;;;;;;;11.27;4.10;;;;;;;-7.66;100.00;99557.03;5026200;28;20125;-73
2023/01/19 04:15:14;;;;;;;10.37;4.30;;;;;;;-7.66;100.00;99554.47;5025981;28;20029;-73
2023/01/19 04:17:40;;;;;;;9.10;3.10;;;;;;;-7.55;100.00;99553.31;5023560;28;20443;-74
2023/01/19 04:20:07;;;;;;;11.80;4.77;;;;;;;-7.39;100.00;99561.78;5024169;28;20037;-73
2023/01/19 04:22:32;;;;;;;9.80;4.10;;;;;;;-7.26;100.00;99556.44;5025088;28;20498;-74
2023/01/19 04:24:58;;;;;;;12.57;5.03;;;;;;;-7.18;100.00;99560.25;5023063;28;20030;-73
2023/01/19 04:27:24;;;;;;;9.10;3.83;;;;;;;-7.12;100.00;99565.69;5027420;28;20045;-73
2023/01/19 04:29:50;;;;;;;10.13;4.13;;;;;;;-7.08;100.00;99572.72;5029634;28;20485;-73
2023/01/19 04:32:16;;;;;;;12.07;4.87;;;;;;;-7.04;100.00;99566.06;5026774;28;20041;-73
2023/01/19 04:34:42;;;;;;;15.13;3.80;;;;;;;-7.08;100.00;99577.84;5026909;28;20534;-74
2023/01/19 04:37:07;;;;;;;10.00;3.80;;;;;;;-7.15;100.00;99575.81;5036605;28;20038;-73
2023/01/19 04:39:33;;;;;;;8.57;3.77;;;;;;;-7.41;100.00;99581.31;5026895;28;20439;-73
2023/01/19 04:41:59;;;;;;;9.77;3.87;;;;;;;-7.71;100.00;99582.41;5022279;28;20104;-73
2023/01/19 04:44:26;;;;;;;8.97;3.90;;;;;;;-7.87;100.00;99584.13;5028441;28;20053;-73
2023/01/19 04:46:51;;;;;;;12.77;4.03;;;;;;;-8.06;100.00;99588.28;5030658;28;20041;-73
2023/01/19 04:49:17;;;;;;;13.23;4.10;;;;;;;-8.13;100.00;99580.22;5027395;28;20037;-73
2023/01/19 04:51:42;;;;;;;9.70;3.87;;;;;;;-8.21;100.00;99580.69;5022831;28;20042;-73
2023/01/19 04:54:08;;;;;;;9.33;3.60;;;;;;;-8.17;100.00;99580.06;5024249;28;20412;-73
2023/01/19 04:56:34;;;;;;;11.73;3.87;;;;;;;-8.11;100.00;99574.38;5021427;28;20120;-73
2023/01/19 04:58:59;;;;;;;9.00;3.93;;;;;;;-8.09;100.00;99572.78;5025630;28;20026;-74
2023/01/19 05:01:24;;;;;;;10.80;3.77;;;;;;;-8.04;100.00;99570.44;5024102;28;20036;-74
2023/01/19 05:03:50;;;;;;;9.67;4.00;;;;;;;-7.98;100.00;99571.66;5028089;28;20037;-74
2023/01/19 05:06:15;;;;;;;9.73;3.97;;;;;;;-7.95;100.00;99576.91;5025121;28;20040;-73
2023/01/19 05:08:40;;;;;;;11.13;3.77;;;;;;;-7.91;100.00;99575.41;5026462;28;20563;-74
2023/01/19 05:11:06;;;;;;;9.73;4.13;;;;;;;-7.88;100.00;99574.69;5035136;28;20033;-74
2023/01/19 05:13:34;;;;;;;9.90;4.23;;;;;;;-7.81;100.00;99585.31;5031154;28;20112;-72
2023/01/19 05:16:00;;;;;;;11.90;4.93;;;;;;;-7.79;100.00;99582.84;5031109;28;20087;-73
2023/01/19 05:18:25;;;;;;;7.23;3.50;;;;;;;-7.79;100.00;99588.84;5023293;28;20033;-74
2023/01/19 05:20:50;;;;;;;10.67;3.87;;;;;;;-7.79;100.00;99600.78;5023634;28;20492;-73
2023/01/19 05:23:16;;;;;;;9.00;3.50;;;;;;;-7.83;100.00;99592.06;5022207;28;20030;-73
2023/01/19 05:25:41;;;;;;;10.03;3.80;;;;;;;-7.81;100.00;99599.81;5024026;28;20043;-74
2023/01/19 05:28:07;;;;;;;13.50;4.13;;;;;;;-7.81;100.00;99593.00;5024352;28;20108;-73
2023/01/19 05:30:32;;;;;;;9.47;3.63;;;;;;;-7.91;100.00;99592.44;5027185;28;20040;-74
2023/01/19 05:32:58;;;;;;;7.50;2.90;;;;;;;-8.00;100.00;99593.72;5023484;28;20033;-74
2023/01/19 05:35:23;;;;;;;9.03;3.73;;;;;;;-8.02;100.00;99597.88;5022824;28;20033;-72
2023/01/19 05:37:49;;;;;;;7.47;3.20;;;;;;;-7.96;100.00;99593.09;5028580;28;20038;-72
2023/01/19 05:40:15;;;;;;;11.03;3.97;;;;;;;-7.90;100.00;99594.22;5022645;28;20046;-73
2023/01/19 05:42:40;;;;;;;14.73;4.40;;;;;;;-7.94;100.00;99591.50;5023658;28;20039;-73
2023/01/19 05:45:07;;;;;;;16.40;6.43;;;;;;;-7.89;100.00;99581.47;5026257;28;20034;-72
2023/01/19 05:47:32;;;;;;;21.90;6.87;;;;;;;-7.79;100.00;99587.97;5027639;28;20037;-73
2023/01/19 05:49:57;;;;;;;20.70;8.00;;;;;;;-7.70;100.00;99583.31;5028687;28;20462;-72
2023/01/19 05:52:23;;;;;;;14.90;6.10;;;;;;;-7.66;100.00;99590.34;5023546;28;21160;-73
2023/01/19 05:54:50;;;;;;;16.73;5.70;;;;;;;-7.76;100.00;99588.13;5033094;28;20865;-72
2023/01/19 05:57:15;;;;;;;17.63;6.30;;;;;;;-7.85;100.00;99585.97;5031279;28;20038;-72
2023/01/19 05:59:41;;;;;;;11.57;4.77;;;;;;;-7.78;100.00;99589.72;5029310;28;20033;-73
2023/01/19 06:02:06;;;;;;;16.40;6.10;;;;;;;-7.62;100.00;99586.25;5031271;28;20418;-72
2023/01/19 06:04:31;;;;;;;13.20;5.00;;;;;;;-7.45;100.00;99588.00;5028223;28;20455;-73
2023/01/19 06:06:57;;;;;;;17.00;7.17;;;;;;;-7.23;100.00;99587.38;5026169;28;20040;-72
2023/01/19 06:09:22;;;;;;;24.53;9.13;;;;;;;-7.14;100.00;99577.56;5027314;28;20069;-72
2023/01/19 06:11:47;;;;;;;17.13;6.30;;;;;;;-7.03;100.00;99582.34;5027734;28;20060;-72
2023/01/19 06:14:13;;;;;;;13.73;5.67;;;;;;;-6.93;100.00;99587.09;5021314;28;20073;-72
2023/01/19 06:16:38;;;;;;;20.37;6.80;;;;;;;-6.84;100.00;99582.41;5021627;28;20037;-72
2023/01/19 06:19:04;;;;;;;18.83;5.97;;;;;;;-6.83;100.00;99581.63;5021138;28;20064;-73
2023/01/19 06:21:30;;;;;;;18.13;7.03;;;;;;;-6.86;100.00;99579.78;5021204;28;20087;-72
2023/01/19 06:23:55;;;;;;;9.73;4.63;;;;;;;-6.85;100.00;99570.38;5023449;28;20029;-73
2023/01/19 06:26:20;;;;;;;9.93;4.40;;;;;;;-6.83;100.00;99573.91;5020244;28;20516;-72
2023/01/19 06:28:47;;;;;;;10.07;3.87;;;;;;;-6.80;100.00;99573.19;5023604;28;20038;-72
2023/01/19 06:31:13;;;;;;;10.40;4.43;;;;;;;-6.77;100.00;99574.19;5020910;28;20500;-72
2023/01/19 06:33:38;;;;;;;8.07;3.07;;;;;;;-6.90;100.00;99566.72;5022163;28;20069;-72
2023/01/19 06:36:04;;;;;;;11.17;4.37;;;;;;;-6.95;100.00;99568.19;5024285;28;20064;-72
2023/01/19 06:38:29;;;;;;;10.10;4.33;;;;;;;-6.90;100.00;99577.00;5028681;28;20036;-72
2023/01/19 06:41:02;;;;;;;8.20;3.33;;;;;;;-6.87;100.00;99583.13;5024120;28;20037;-72
2023/01/19 06:43:27;;;;;;;;;;;;;;;-6.77;100.00;99576.75;5021464;28;20033;-72
2023/01/19 06:45:53;;;;;;;7.43;3.53;;;;;;;-6.77;100.00;99593.84;5021377;28;20389;-72
2023/01/19 06:48:19;;;;;;;8.87;3.60;;;;;;;-6.80;100.00;99597.16;5022009;28;20113;-72
2023/01/19 06:50:45;;;;;;;10.73;3.60;;;;;;;-6.83;100.00;99604.72;5023652;28;20033;-73
2023/01/19 06:53:11;;;;;;;9.37;4.40;;;;;;;-6.84;100.00;99597.78;5019402;28;20045;-72
2023/01/19 06:55:38;;;;;;;10.70;4.33;;;;;;;-6.80;100.00;99594.59;5023419;28;20052;-72
2023/01/19 06:58:03;;;;;;;10.50;4.30;;;;;;;-6.74;100.00;99597.44;5025407;28;20056;-72
2023/01/19 07:00:29;;;;;;;12.77;4.90;;;;;;;-6.72;100.00;99595.81;5026061;28;20034;-72
2023/01/19 07:02:54;;;;;;;9.60;4.93;;;;;;;-6.65;100.00;99600.44;5018833;28;20080;-72
2023/01/19 07:05:20;;;;;;;13.50;4.17;;;;;;;-6.62;100.00;99615.09;5029471;28;20408;-72
2023/01/19 07:07:51;;;;;;;10.40;4.30;;;;;;;-6.68;100.00;99609.66;5028427;28;20037;-72
2023/01/19 07:10:16;;;;;;;11.90;4.93;;;;;;;-6.80;100.00;99609.09;5028928;28;20033;-72
2023/01/19 07:12:43;;;;;;;15.57;6.43;;;;;;;-6.81;100.00;99607.31;5021527;28;20064;-72
2023/01/19 07:15:10;;;;;;;14.37;5.57;;;;;;;-6.82;100.00;99614.16;5022882;28;20048;-73
2023/01/19 07:17:35;;;;;;;11.93;5.03;;;;;;;-6.84;100.00;99613.19;5025979;28;20456;-72
2023/01/19 07:20:01;;;;;;;8.90;3.70;;;;;;;-6.87;100.00;99624.19;5026670;28;20046;-72
2023/01/19 07:22:27;;;;;;;12.60;4.33;;;;;;;-6.94;100.00;99621.25;5023523;28;20056;-72
2023/01/19 07:24:52;;;;;;;10.30;3.57;;;;;;;-7.01;100.00;99624.34;5022714;28;20034;-72
2023/01/19 07:27:17;;;;;;;8.23;3.77;;;;;;;-7.03;100.00;99625.94;5022401;28;20405;-72
2023/01/19 07:29:43;;;;;;;19.60;7.77;;;;;;;-7.00;100.00;99644.03;5020357;28;20420;-72
2023/01/19 07:32:08;;;;;;;10.47;4.67;;;;;;;-7.04;100.00;99634.44;5022767;28;20489;-72
2023/01/19 07:34:34;;;;;;;12.97;4.27;;;;;;;-7.10;100.00;99640.13;5022814;28;20048;-73
2023/01/19 07:37:00;;;;;;;12.63;4.07;;;;;;;-7.12;100.00;99636.63;5027282;28;20079;-72
2023/01/19 07:39:25;;;;;;;9.00;4.27;;;;;;;-7.10;100.00;99633.34;5020007;28;20485;-72
2023/01/19 07:41:50;;;;;;;16.40;5.40;;;;;;;-7.04;100.00;99637.03;5023138;28;20464;-72
2023/01/19 07:44:16;;;;;;;12.40;4.73;;;;;;;-7.11;100.00;99638.38;5020975;28;20064;-72
2023/01/19 07:46:42;;;;;;;13.47;5.13;;;;;;;-7.18;100.00;99652.56;5024679;28;20397;-73
2023/01/19 07:49:07;;;;;;;9.67;4.30;;;;;;;-7.16;100.00;99650.97;5023399;28;20408;-73
2023/01/19 07:51:32;;;;;;;7.17;3.73;;;;;;;-7.13;100.00;99655.38;5023725;28;20040;-72
2023/01/19 07:53:58;;;;;;;9.80;4.43;;;;;;;-7.02;100.00;99661.03;5023572;28;20075;-72
2023/01/19 07:56:24;;;;;;;10.90;4.80;;;;;;;-6.92;100.00;99659.00;5020864;28;20080;-72
2023/01/19 07:58:51;;;;;;;9.07;3.83;;;;;;;-6.85;100.00;99657.63;5020880;28;20464;-72
2023/01/19 08:01:17;;;;;;;8.87;4.50;;;;;;;-6.92;100.00;99670.94;5022463;28;20519;-72
2023/01/19 08:03:42;;;;;;;8.97;3.80;;;;;;;-6.90;100.00;99671.91;5025870;28;20026;-71
2023/01/19 08:06:18;;;;;;;9.80;4.37;;;;;;;-6.89;100.00;99666.88;5020937;28;20099;-73
2023/01/19 08:08:43;;;;;;;10.10;3.80;;;;;;;-6.91;100.00;99676.16;5024192;28;20676;-72
2023/01/19 08:11:08;;;;;;;15.13;4.57;;;;;;;-6.87;100.00;99674.63;5020031;28;20030;-72
2023/01/19 08:13:34;;;;;;;11.40;4.43;;;;;;;-6.81;100.00;99674.94;5020673;28;20056;-72
2023/01/19 08:15:59;;;;;;;13.57;5.57;;;;;;;-6.80;100.00;99681.81;5020255;28;20049;-72
2023/01/19 08:18:24;;;;;;;9.20;4.00;;;;;;;-6.75;100.00;99680.38;5025858;28;20038;-72
2023/01/19 08:20:50;;;;;;;15.13;5.70;;;;;;;-6.67;100.00;99684.19;5021522;28;20037;-72
2023/01/19 08:23:16;;;;;;;10.77;5.00;;;;;;;-6.56;100.00;99681.25;5022531;28;20033;-72
2023/01/19 08:25:45;;;;;;;14.73;5.27;;;;;;;-6.44;100.00;99684.41;5023073;28;20041;-72
2023/01/19 08:28:13;;;;;;;11.60;4.80;;;;;;;-6.33;100.00;99690.94;5018804;28;20376;-72
2023/01/19 08:30:39;;;;;;;16.57;5.37;;;;;;;-6.24;100.00;99693.03;5023781;28;20034;-72
2023/01/19 08:33:08;;;;;;;11.10;5.50;;;;;;;-6.13;100.00;99694.44;5040034;23;20515;-71
2023/01/19 08:35:42;;;;;;;15.33;5.57;;;;;;;-6.02;100.00;99692.38;5023071;28;20037;-72
2023/01/19 08:38:09;;;;;;;13.33;5.20;;;;;;;-5.92;100.00;99694.53;5032915;28;20116;-72
2023/01/19 08:40:37;;;;;;;12.33;5.13;;;;;;;-5.83;100.00;99700.06;5022904;28;20041;-72
2023/01/19 08:43:12;;;;;;;12.80;6.07;;;;;;;-5.73;100.00;99702.25;5025871;28;20029;-72
2023/01/19 08:45:45;;;;;;;12.50;4.43;;;;;;;-5.60;100.00;99705.38;5020098;28;20859;-71
2023/01/19 08:48:11;;;;;;;16.97;5.03;;;;;;;-5.54;100.00;99711.66;5025892;28;20068;-72
2023/01/19 08:50:36;;;;;;;11.47;4.53;;;;;;;-5.50;100.00;99705.00;5028696;28;20131;-72
2023/01/19 08:53:05;;;;;;;13.97;5.00;;;;;;;-5.42;100.00;99711.34;5022928;28;20041;-72
2023/01/19 08:55:30;;;;;;;14.93;5.23;;;;;;;-5.34;100.00;99714.25;5024743;28;20049;-72
2023/01/19 08:57:58;;;;;;;10.90;4.77;;;;;;;-5.21;100.00;99703.69;5030014;28;20037;-72
2023/01/19 09:00:24;;;;;;;12.13;5.53;;;;;;;-5.20;100.00;99704.56;5023087;28;20121;-72
2023/01/19 09:02:50;;;;;;;10.43;5.17;;;;;;;-5.10;100.00;99712.75;5023251;28;20120;-71
2023/01/19 09:05:16;;;;;;;10.93;5.23;;;;;;;-5.05;100.00;99720.66;5024387;28;20034;-71
2023/01/19 09:07:46;;;;;;;15.07;6.80;;;;;;;-4.97;100.00;99716.72;5025605;28;20045;-72
2023/01/19 09:10:12;;;;;;;18.37;7.27;;;;;;;-4.89;100.00;99723.06;5023114;28;20068;-72
2023/01/19 09:12:37;;;;;;;13.10;5.47;;;;;;;-4.77;100.00;99726.97;5023974;28;20072;-71
2023/01/19 09:15:03;;;;;;;13.87;6.13;;;;;;;-4.68;100.00;99730.81;5023130;28;20037;-72
2023/01/19 09:17:29;;;;;;;16.43;6.13;;;;;;;-4.65;100.00;99727.50;5024691;28;20037;-72
2023/01/19 09:19:54;;;;;;;16.07;6.40;;;;;;;-4.61;100.00;99729.38;5023427;28;20088;-72
2023/01/19 09:22:19;;;;;;;13.53;6.13;;;;;;;-4.54;100.00;99720.22;5024815;28;20426;-72
2023/01/19 09:24:45;;;;;;;13.77;6.47;;;;;;;-4.45;100.00;99731.78;5022149;28;20845;-72
2023/01/19 09:27:10;;;;;;;13.03;6.07;;;;;;;-4.37;100.00;99718.34;5024275;28;20488;-72
2023/01/19 09:29:35;;;;;;;14.90;5.77;;;;;;;-4.23;100.00;99720.63;5025056;28;20037;-72
2023/01/19 09:32:01;;;;;;;13.47;6.40;;;;;;;-4.11;100.00;99720.25;5024980;28;20041;-72
2023/01/19 09:34:26;;;;;;;17.00;5.40;;;;;;;-4.01;100.00;99717.22;5027311;28;20029;-72
2023/01/19 09:36:52;;;;;;;12.20;6.67;;;;;;;-3.90;100.00;99722.78;5027448;28;20470;-72
2023/01/19 09:39:17;;;;;;;16.03;5.50;;;;;;;-3.87;100.00;99724.59;5021034;28;20041;-72
2023/01/19 09:41:47;;;;;;;14.80;6.63;;;;;;;-3.80;100.00;99719.72;5025197;28;20064;-72
2023/01/19 09:44:23;;;;;;;12.93;5.77;;;;;;;-3.69;100.00;99719.22;5024933;28;20038;-72
2023/01/19 09:46:49;;;;;;;12.40;5.13;;;;;;;-3.64;100.00;99716.03;5020520;28;20520;-72
2023/01/19 09:49:18;;;;;;;12.57;4.93;;;;;;;-3.55;100.00;99711.19;5028769;28;20041;-71
2023/01/19 09:51:47;;;;;;;14.10;5.77;;;;;;;-3.38;100.00;99708.34;5022629;28;20056;-72
2023/01/19 09:54:17;;;;;;;10.67;5.53;;;;;;;-3.18;100.00;99704.78;5024882;28;20086;-72
2023/01/19 09:56:44;;;;;;;15.70;6.03;;;;;;;-3.04;100.00;99706.97;5026189;28;20037;-72
2023/01/19 09:59:28;;;;;;;14.37;6.37;;;;;;;-2.82;100.00;99695.69;5022784;28;20121;-72
2023/01/19 10:02:31;;;;;;;13.33;5.60;;;;;;;-2.65;100.00;99689.38;5021197;28;20099;-72
2023/01/19 10:05:02;;;;;;;11.00;5.73;;;;;;;-2.53;100.00;99691.50;5023092;28;20062;-72
2023/01/19 10:07:52;;;;;;;12.10;5.80;;;;;;;-2.47;100.00;99687.38;5027713;28;20036;-72
2023/01/19 10:10:21;;;;;;;10.97;5.40;;;;;;;-2.35;100.00;99683.47;5024949;28;20496;-72
2023/01/19 10:12:54;;;;;;;12.37;6.10;;;;;;;-2.25;100.00;99673.47;5025139;28;20121;-72
2023/01/19 10:15:31;;;;;;;;;;;;;;;-2.11;100.00;99665.25;5024376;28;20037;-72
2023/01/19 10:18:17;;;;;;;11.70;4.90;;;;;;;-2.03;100.00;99667.22;5019788;28;20410;-72
2023/01/19 10:20:48;;;;;;;11.90;5.70;;;;;;;-1.94;100.00;99661.44;5020374;28;20119;-72
2023/01/19 10:23:34;;;;;;;13.13;5.47;;;;;;;-1.87;100.00;99667.69;5022545;28;20105;-72
2023/01/19 10:26:07;;;;;;;11.17;5.03;;;;;;;-1.82;100.00;99669.59;5023050;28;20037;-72
2023/01/19 10:28:32;;;;;;;14.15;5.20;;;;;;;-1.77;100.00;99665.44;5022945;28;20037;-72
2023/01/19 10:30:58;;;;;;;13.27;6.27;;;;;;;-1.69;100.00;99668.25;5013883;28;20404;-72
2023/01/19 10:33:23;;;;;;;11.43;5.13;;;;;;;-1.62;100.00;99662.41;5020251;28;20080;-72
2023/01/19 10:35:49;;;;;;;9.13;5.17;;;;;;;-1.59;100.00;99653.88;5022242;28;20041;-72
2023/01/19 10:38:20;;;;;;;11.70;5.00;;;;;;;-1.50;100.00;99655.81;5023659;28;20069;-72
2023/01/19 10:41:03;;;;;;;13.27;3.90;;;;;;;-1.48;100.00;99657.63;5022814;28;20502;-72
2023/01/19 10:43:59;;;;;;;11.55;4.70;;;;;;;-1.40;100.00;99660.44;5023498;28;20555;-72
2023/01/19 10:46:46;;;;;;;9.47;5.13;;;;;;;-1.30;100.00;99653.81;5016414;28;20575;-72
2023/01/19 10:49:30;;;;;;;10.57;4.70;;;;;;;-1.23;100.00;99660.88;5021618;28;20128;-72
2023/01/19 10:51:57;;;;;;;10.27;4.33;;;;;;;-1.20;100.00;99659.28;5023008;28;20153;-72
2023/01/19 10:54:24;;;;;;;9.67;4.50;;;;;;;-1.11;100.00;99658.63;5024321;28;20037;-72
2023/01/19 10:56:54;;;;;;;13.77;5.10;;;;;;;-0.98;100.00;99662.41;5018324;28;20140;-72
2023/01/19 10:59:34;;;;;;;10.27;5.17;;;;;;;-0.81;100.00;99657.66;5026885;28;20037;-72
2023/01/19 11:02:19;;;;;;;12.03;4.70;;;;;;;-0.74;100.00;99659.56;5019673;28;20179;-72
2023/01/19 11:04:48;;;;;;;11.17;5.07;;;;;;;-0.64;100.00;99660.69;5019133;28;20405;-72
2023/01/19 11:07:42;;;;;;;9.33;4.57;;;;;;;-0.52;100.00;99651.50;5028747;28;20043;-72
2023/01/19 11:10:11;;;;;;;10.70;4.27;;;;;;;-0.43;100.00;99645.66;5016990;28;20052;-73
2023/01/19 11:12:46;;;;;;;14.17;4.97;;;;;;;-0.37;100.00;99650.09;5021942;28;20049;-72
2023/01/19 11:15:20;;;;;;;12.00;5.50;;;;;;;-0.35;100.00;99648.44;5022122;28;20033;-72
2023/01/19 11:17:47;;;;;;;13.03;5.03;;;;;;;-0.36;100.00;99647.56;5024948;28;20046;-72
2023/01/19 11:20:20;;;;;;;9.47;4.33;;;;;;;-0.32;100.00;99638.13;5025539;28;20041;-72
2023/01/19 11:22:46;;;;;;;10.93;4.63;;;;;;;-0.31;100.00;99643.34;5025610;28;20029;-72
2023/01/19 11:25:22;;;;;;;11.53;5.23;;;;;;;-0.25;100.00;99637.44;5022187;28;20385;-72
2023/01/19 11:27:50;;;;;;;11.33;4.33;;;;;;;-0.21;100.00;99641.84;5021707;28;20042;-72
2023/01/19 11:30:21;;;;;;;8.93;3.93;;;;;;;-0.24;100.00;99641.75;5021445;28;20044;-72
2023/01/19 11:32:48;;;;;;;10.97;5.33;;;;;;;-0.20;100.00;99643.59;5022218;28;20025;-73
2023/01/19 11:35:37;;;;;;;9.40;4.90;;;;;;;-0.08;100.00;99641.28;5030253;28;20506;-72